Time;durP1;ratioP1;P1;durP2;ratioP2;P2;SDS_P1;SDS_P2;PMS_P1;PMS_P2;Temp;Humidity;BMP_temperature;BMP_pressure;BME280_temperature;BME280_humidity;BME280_pressure;Samples;Min_cycle;Max_cycle;Signal;HPM_P1;HPM_P2
2021/11/08 00:02:20;;;;;;;7.90;4.30;;;7.20;99.90;;;;;;20743303;28;20397;-79
2021/11/08 00:12:22;;;;;;;7.25;4.55;;;7.20;99.90;;;;;;20805973;23;20491;-78
2021/11/08 00:22:23;;;;;;;6.78;4.43;;;7.20;99.90;;;;;;20797771;28;20033;-80
2021/11/08 00:32:25;;;;;;;7.40;4.15;;;7.10;99.90;;;;;;20780698;28;20537;-80
2021/11/08 00:42:29;;;;;;;7.10;4.38;;;7.10;99.90;;;;;;20813038;28;20111;-77
2021/11/08 00:52:30;;;;;;;7.55;4.55;;;7.10;99.90;;;;;;20815155;28;20430;-81
2021/11/08 01:02:31;;;;;;;7.63;5.50;;;7.10;99.90;;;;;;20843160;28;20094;-80
2021/11/08 01:12:32;;;;;;;7.55;4.40;;;7.10;99.90;;;;;;20840313;28;20029;-80
2021/11/08 01:22:35;;;;;;;5.87;3.87;;;7.10;99.90;;;;;;20839185;28;20021;-81
2021/11/08 01:32:36;;;;;;;5.05;3.60;;;7.10;99.90;;;;;;20827115;28;20036;-81
2021/11/08 01:42:37;;;;;;;6.22;3.78;;;7.10;99.90;;;;;;20837842;28;20033;-80
2021/11/08 01:52:37;;;;;;;5.00;3.80;;;7.10;99.90;;;;;;20836819;28;20087;-81
2021/11/08 02:02:38;;;;;;;8.80;3.43;;;7.10;99.90;;;;;;20818559;28;20065;-81
2021/11/08 02:12:39;;;;;;;5.50;3.17;;;7.10;99.90;;;;;;20835021;28;20410;-79
2021/11/08 02:22:42;;;;;;;5.33;3.43;;;7.10;99.90;;;;;;20835482;28;20029;-80
2021/11/08 02:32:43;;;;;;;5.05;2.95;;;7.10;99.90;;;;;;20850211;28;20025;-79
2021/11/08 02:42:48;;;;;;;4.50;3.38;;;7.00;99.90;;;;;;20841142;28;20033;-79
2021/11/08 02:52:51;;;;;;;5.30;3.10;;;6.90;99.90;;;;;;20831131;28;20021;-81
2021/11/08 03:02:52;;;;;;;6.57;3.92;;;6.70;99.90;;;;;;20831685;28;20029;-80
2021/11/08 03:12:56;;;;;;;5.20;3.57;;;6.70;99.90;;;;;;20831622;28;20112;-81
2021/11/08 03:23:01;;;;;;;4.57;2.95;;;6.70;99.90;;;;;;20841504;28;20500;-81
2021/11/08 03:33:04;;;;;;;4.57;2.67;;;6.60;99.90;;;;;;20839233;28;20025;-80
2021/11/08 03:43:11;;;;;;;5.25;3.28;;;6.40;99.90;;;;;;20847435;28;20030;-81
2021/11/08 03:53:12;;;;;;;4.95;3.20;;;6.30;99.90;;;;;;20855501;28;20037;-81
2021/11/08 04:03:13;;;;;;;;;;;6.30;99.90;;;;;;20846511;28;20044;-81
2021/11/08 04:13:14;;;;;;;5.25;3.50;;;6.30;99.90;;;;;;20844245;28;20035;-81
2021/11/08 04:23:17;;;;;;;5.20;3.25;;;6.30;99.90;;;;;;20826907;28;20092;-80
2021/11/08 04:53:54;;;;;;;6.55;4.70;;;6.00;99.90;;;;;;20828171;28;20557;-80
2021/11/08 05:34:31;;;;;;;16.20;6.75;;;6.00;99.90;;;;;;20844950;28;20040;-80
2021/11/08 05:44:33;;;;;;;17.10;7.72;;;6.00;99.90;;;;;;20844987;28;20049;-79
2021/11/08 05:54:34;;;;;;;10.73;6.45;;;5.80;99.90;;;;;;20844624;28;20053;-80
2021/11/08 06:56:22;;;;;;;11.90;2.92;;;5.00;99.90;;;;;;20835842;28;20150;-80
2021/11/08 07:06:23;;;;;;;11.50;2.85;;;5.10;99.90;;;;;;20813871;28;20037;-80
2021/11/08 07:16:24;;;;;;;10.82;3.45;;;5.00;99.90;;;;;;20830079;28;20415;-80
2021/11/08 07:26:26;;;;;;;9.00;3.80;;;5.10;99.90;;;;;;20813608;28;20511;-81
2021/11/08 07:36:27;;;;;;;7.65;3.58;;;5.30;99.90;;;;;;20812362;28;20037;-80
2021/11/08 07:46:28;;;;;;;12.02;3.13;;;5.40;99.90;;;;;;20811444;28;20549;-79
2021/11/08 07:56:29;;;;;;;5.97;2.58;;;5.50;99.90;;;;;;20828760;28;20482;-81
2021/11/08 08:06:30;;;;;;;6.32;2.47;;;5.80;99.90;;;;;;20812224;28;20032;-78
2021/11/08 08:16:30;;;;;;;13.03;3.17;;;6.00;99.90;;;;;;20828791;28;20040;-80
2021/11/08 08:26:38;;;;;;;8.97;2.27;;;6.40;99.90;;;;;;20830331;28;20490;-80
2021/11/08 08:36:40;;;;;;;9.80;2.30;;;6.60;99.90;;;;;;20845483;28;20479;-80
2021/11/08 08:46:42;;;;;;;12.20;2.78;;;6.70;99.90;;;;;;20835835;28;20033;-78
2021/11/08 08:56:43;;;;;;;11.90;2.58;;;6.90;99.90;;;;;;20841343;28;20029;-79
2021/11/08 09:06:44;;;;;;;12.97;2.97;;;7.60;99.90;;;;;;20823088;28;20112;-79
2021/11/08 09:16:45;;;;;;;5.80;2.60;;;7.70;99.90;;;;;;20839649;28;20064;-80
2021/11/08 09:26:47;;;;;;;8.87;2.87;;;8.40;99.90;;;;;;20838642;28;20116;-81
2021/11/08 09:36:51;;;;;;;7.97;3.15;;;8.80;99.90;;;;;;20819872;28;20075;-78
2021/11/08 09:46:57;;;;;;;13.23;2.92;;;8.80;99.90;;;;;;20820846;28;20514;-79
2021/11/08 09:56:59;;;;;;;6.70;2.75;;;9.40;99.90;;;;;;20819616;28;20107;-79
2021/11/08 10:07:01;;;;;;;7.90;3.20;;;9.40;99.90;;;;;;20818285;28;20037;-80
2021/11/08 10:17:02;;;;;;;7.50;3.33;;;9.80;99.90;;;;;;20835624;28;20083;-79
2021/11/08 10:27:11;;;;;;;14.25;3.53;;;10.10;99.90;;;;;;20817944;28;20060;-80
2021/11/08 10:37:25;;;;;;;15.07;3.00;;;10.50;99.90;;;;;;20823490;28;20044;-80
2021/11/08 10:47:28;;;;;;;13.95;3.00;;;10.50;99.90;;;;;;20817610;28;20037;-80
2021/11/08 10:57:31;;;;;;;9.35;3.45;;;11.30;99.90;;;;;;20831063;28;20410;-80
2021/11/08 11:07:35;;;;;;;8.00;2.10;;;12.00;99.90;;;;;;20813619;28;20037;-79
2021/11/08 11:17:42;;;;;;;8.85;2.63;;;13.60;99.90;;;;;;20830459;28;20029;-80
2021/11/08 11:27:48;;;;;;;8.13;2.00;;;13.80;99.90;;;;;;20829957;28;20036;-80
2021/11/08 11:37:56;;;;;;;7.65;1.98;;;13.50;99.90;;;;;;20807635;28;20068;-81
2021/11/08 11:48:03;;;;;;;9.23;1.80;;;13.90;99.90;;;;;;20775477;28;20053;-81
2021/11/08 11:58:05;;;;;;;6.50;1.75;;;14.60;99.90;;;;;;20793439;28;20044;-79
2021/11/08 12:08:08;;;;;;;9.57;3.08;;;14.70;99.90;;;;;;20802651;28;20025;-80
2021/11/08 12:18:12;;;;;;;15.25;6.10;;;14.50;99.90;;;;;;20792443;28;20083;-81
2021/11/08 12:28:16;;;;;;;14.73;3.35;;;14.60;99.90;;;;;;20798172;28;20083;-79
2021/11/08 12:38:25;;;;;;;10.70;5.50;;;14.50;99.90;;;;;;20804945;28;20118;-80
2021/11/08 12:48:33;;;;;;;4.85;2.10;;;14.60;99.90;;;;;;20787983;28;20037;-80
2021/11/08 12:58:44;;;;;;;9.02;3.47;;;15.00;99.90;;;;;;20770219;28;20033;-82
2021/11/08 13:08:45;;;;;;;4.60;2.50;;;13.50;99.90;;;;;;20782214;28;20026;-79
2021/11/08 13:18:46;;;;;;;4.80;1.57;;;14.30;99.90;;;;;;20761567;28;20044;-80
2021/11/08 13:28:50;;;;;;;8.23;1.77;;;15.10;99.90;;;;;;20760345;28;20030;-81
2021/11/08 13:38:55;;;;;;;10.77;1.80;;;15.30;99.90;;;;;;20739511;28;20121;-79
2021/11/08 13:49:01;;;;;;;7.75;2.75;;;12.90;99.90;;;;;;20756957;28;20071;-80
2021/11/08 13:59:09;;;;;;;14.52;5.88;;;14.50;99.90;;;;;;20739153;28;20037;-80
2021/11/08 14:09:18;;;;;;;9.13;3.45;;;14.90;99.90;;;;;;20748586;28;20403;-77
2021/11/08 14:19:20;;;;;;;7.05;2.50;;;14.90;99.90;;;;;;20738215;28;20101;-81
2021/11/08 14:29:23;;;;;;;10.07;2.72;;;14.70;99.90;;;;;;20736918;28;20036;-79
2021/11/08 14:39:27;;;;;;;6.43;2.35;;;15.00;99.90;;;;;;20735917;28;20428;-80
2021/11/08 14:49:31;;;;;;;11.88;2.40;;;14.70;99.90;;;;;;20753105;28;20034;-81
2021/11/08 14:59:36;;;;;;;6.47;1.90;;;14.20;99.90;;;;;;20731929;28;20037;-81
2021/11/08 15:09:44;;;;;;;6.10;2.10;;;13.20;99.90;;;;;;20734046;28;20074;-81
2021/11/08 15:19:46;;;;;;;7.30;2.05;;;12.50;99.90;;;;;;20770887;28;20058;-79
2021/11/08 15:29:48;;;;;;;8.52;1.95;;;11.60;99.90;;;;;;20768880;28;20037;-79
2021/11/08 15:39:48;;;;;;;4.83;1.60;;;10.70;99.90;;;;;;20789953;28;20037;-78
2021/11/08 15:49:49;;;;;;;13.13;2.17;;;10.10;99.90;;;;;;20775490;28;20094;-80
2021/11/08 15:59:52;;;;;;;6.33;2.07;;;9.40;99.90;;;;;;20800064;28;20385;-80
2021/11/08 16:09:53;;;;;;;7.25;2.55;;;8.90;99.90;;;;;;20809454;28;20093;-79
2021/11/08 16:19:54;;;;;;;13.37;2.60;;;8.30;99.90;;;;;;20819577;28;20040;-80
2021/11/08 16:29:55;;;;;;;10.17;2.50;;;7.80;99.90;;;;;;20802799;28;20291;-80
2021/11/08 16:39:56;;;;;;;;;;;7.40;99.90;;;;;;20813386;28;20029;-79
2021/11/08 16:49:57;;;;;;;6.50;2.53;;;7.10;99.90;;;;;;20860263;28;19921;-80
2021/11/08 16:59:58;;;;;;;6.07;3.40;;;6.90;99.90;;;;;;20863277;28;20104;-80
2021/11/08 17:20:07;;;;;;;11.32;2.95;;;6.10;99.90;;;;;;20848975;28;20041;-80
2021/11/08 17:30:08;;;;;;;5.43;2.33;;;6.20;99.90;;;;;;20831710;28;20033;-80
2021/11/08 17:40:13;;;;;;;9.70;2.92;;;6.20;99.90;;;;;;20816357;28;20511;-79
2021/11/08 17:50:18;;;;;;;12.15;3.10;;;5.90;99.90;;;;;;20857021;28;20029;-78
2021/11/08 18:00:20;;;;;;;7.75;3.08;;;5.80;99.90;;;;;;20837624;28;20044;-79
2021/11/08 18:10:23;;;;;;;27.67;3.55;;;5.70;99.90;;;;;;20829316;28;20025;-80
2021/11/08 18:20:30;;;;;;;13.80;3.72;;;5.50;99.90;;;;;;20814872;28;20029;-78
2021/11/08 18:30:32;;;;;;;10.95;3.83;;;5.30;99.90;;;;;;20805908;28;20027;-78
2021/11/08 18:40:34;;;;;;;13.75;3.47;;;5.20;99.90;;;;;;20833253;28;20037;-78
2021/11/08 18:50:38;;;;;;;14.85;3.85;;;5.10;99.90;;;;;;20828888;28;20063;-79
2021/11/08 19:00:41;;;;;;;11.65;3.20;;;5.10;99.90;;;;;;20834618;28;20037;-76
2021/11/08 19:10:45;;;;;;;15.75;3.75;;;5.10;99.90;;;;;;20796378;28;20040;-76
2021/11/08 19:20:46;;;;;;;14.02;3.42;;;5.10;99.90;;;;;;20811512;28;20029;-77
2021/11/08 19:30:49;;;;;;;15.93;3.63;;;5.10;99.90;;;;;;20810240;28;20064;-78
2021/11/08 19:40:51;;;;;;;10.77;3.20;;;4.90;99.90;;;;;;20801049;28;20041;-79
2021/11/08 19:50:54;;;;;;;7.60;3.03;;;4.80;99.90;;;;;;20803062;28;20055;-79
2021/11/08 20:00:55;;;;;;;11.82;3.72;;;4.60;99.90;;;;;;20855937;28;20017;-77
2021/11/08 20:10:59;;;;;;;9.82;3.75;;;4.50;99.90;;;;;;20831086;28;20052;-77
2021/11/08 20:21:00;;;;;;;11.52;4.28;;;4.40;99.90;;;;;;20796019;28;20025;-78
2021/11/08 20:41:25;;;;;;;14.20;4.07;;;4.10;99.90;;;;;;20844098;28;20372;-79
2021/11/08 21:01:49;;;;;;;10.98;4.38;;;4.10;99.90;;;;;;20854644;28;20030;-78
2021/11/08 21:21:52;;;;;;;15.05;4.78;;;3.80;99.90;;;;;;20838178;28;20045;-78
2021/11/08 21:42:01;;;;;;;17.92;4.38;;;3.90;99.90;;;;;;20822723;28;20147;-77
2021/11/08 21:52:06;;;;;;;;;;;4.00;99.90;;;;;;20814892;28;20037;-77
2021/11/08 22:02:07;;;;;;;11.20;4.68;;;3.80;99.90;;;;;;20833624;28;19917;-78
2021/11/08 22:12:08;;;;;;;16.20;3.97;;;3.60;99.90;;;;;;20854090;28;20037;-78
2021/11/08 22:22:13;;;;;;;19.33;5.03;;;3.60;99.90;;;;;;20922020;28;20036;-78
2021/11/08 22:32:14;;;;;;;12.90;4.53;;;3.50;99.90;;;;;;20911393;28;20046;-80
2021/11/08 22:42:19;;;;;;;13.55;5.30;;;3.60;99.90;;;;;;20900145;28;20029;-79
2021/11/08 22:52:20;;;;;;;12.10;5.10;;;3.50;99.90;;;;;;20869199;28;20037;-79
2021/11/08 23:02:25;;;;;;;20.27;5.30;;;3.50;99.90;;;;;;20891651;28;20035;-79
2021/11/08 23:12:27;;;;;;;14.70;5.57;;;3.40;99.90;;;;;;20892369;28;20265;-79
2021/11/08 23:22:27;;;;;;;19.27;6.72;;;3.20;99.90;;;;;;20899748;28;20044;-79
2021/11/08 23:32:28;;;;;;;20.92;6.20;;;2.90;99.90;;;;;;20897852;28;20038;-79
2021/11/08 23:42:29;;;;;;;11.27;4.97;;;2.80;99.90;;;;;;20897440;28;20043;-79
2021/11/08 23:52:30;;;;;;;19.52;5.78;;;2.80;99.90;;;;;;20894570;28;20038;-79
